sensor_id;sensor_type;location;lat;lon;timestamp;temperature;humidity
6008;DHT22;3032;49.484;11.112;2022-09-09T00:04:27;14.30;99.90
6008;DHT22;3032;49.484;11.112;2022-09-09T00:07:03;14.10;99.90
6008;DHT22;3032;49.484;11.112;2022-09-09T00:09:36;14.10;99.90
6008;DHT22;3032;49.484;11.112;2022-09-09T00:14:45;14.20;99.90
6008;DHT22;3032;49.484;11.112;2022-09-09T00:17:21;14.40;99.90
6008;DHT22;3032;49.484;11.112;2022-09-09T00:19:59;14.50;99.90
6008;DHT22;3032;49.484;11.112;2022-09-09T00:22:28;14.40;99.90
6008;DHT22;3032;49.484;11.112;2022-09-09T00:25:08;14.30;99.90
6008;DHT22;3032;49.484;11.112;2022-09-09T00:27:41;14.40;99.90
6008;DHT22;3032;49.484;11.112;2022-09-09T00:30:20;14.20;99.90
6008;DHT22;3032;49.484;11.112;2022-09-09T00:32:49;14.10;99.90
6008;DHT22;3032;49.484;11.112;2022-09-09T00:35:25;14.20;99.90
6008;DHT22;3032;49.484;11.112;2022-09-09T00:37:56;14.00;99.90
6008;DHT22;3032;49.484;11.112;2022-09-09T00:40:34;14.10;99.90
6008;DHT22;3032;49.484;11.112;2022-09-09T00:43:28;14.20;99.90
6008;DHT22;3032;49.484;11.112;2022-09-09T00:46:25;14.20;99.90
6008;DHT22;3032;49.484;11.112;2022-09-09T00:57:38;14.50;99.90
6008;DHT22;3032;49.484;11.112;2022-09-09T01:05:43;14.60;99.90
6008;DHT22;3032;49.484;11.112;2022-09-09T01:08:43;14.80;99.90
6008;DHT22;3032;49.484;11.112;2022-09-09T01:17:22;15.10;99.90
6008;DHT22;3032;49.484;11.112;2022-09-09T01:25:15;14.80;99.90
6008;DHT22;3032;49.484;11.112;2022-09-09T01:27:44;14.90;99.90
6008;DHT22;3032;49.484;11.112;2022-09-09T01:30:13;15.10;99.90
6008;DHT22;3032;49.484;11.112;2022-09-09T01:35:29;14.60;99.90
6008;DHT22;3032;49.484;11.112;2022-09-09T01:37:57;14.60;99.90
6008;DHT22;3032;49.484;11.112;2022-09-09T01:40:24;14.40;99.90
6008;DHT22;3032;49.484;11.112;2022-09-09T01:42:50;14.30;99.90
6008;DHT22;3032;49.484;11.112;2022-09-09T01:45:15;14.40;99.90
6008;DHT22;3032;49.484;11.112;2022-09-09T01:47:41;14.40;99.90
6008;DHT22;3032;49.484;11.112;2022-09-09T01:50:10;14.40;99.90
6008;DHT22;3032;49.484;11.112;2022-09-09T01:52:38;14.50;99.90
6008;DHT22;3032;49.484;11.112;2022-09-09T01:55:04;14.70;99.90
6008;DHT22;3032;49.484;11.112;2022-09-09T01:57:36;14.90;99.90
6008;DHT22;3032;49.484;11.112;2022-09-09T02:00:10;14.80;99.90
6008;DHT22;3032;49.484;11.112;2022-09-09T02:08:07;14.50;99.90
6008;DHT22;3032;49.484;11.112;2022-09-09T02:10:48;14.50;99.90
6008;DHT22;3032;49.484;11.112;2022-09-09T02:13:17;14.30;99.90
6008;DHT22;3032;49.484;11.112;2022-09-09T02:18:23;14.50;99.90
6008;DHT22;3032;49.484;11.112;2022-09-09T02:20:50;14.80;99.90
6008;DHT22;3032;49.484;11.112;2022-09-09T02:23:16;15.20;99.90
6008;DHT22;3032;49.484;11.112;2022-09-09T02:25:43;15.30;99.90
6008;DHT22;3032;49.484;11.112;2022-09-09T02:28:10;15.40;99.90
6008;DHT22;3032;49.484;11.112;2022-09-09T02:30:39;15.10;99.90
6008;DHT22;3032;49.484;11.112;2022-09-09T02:33:06;15.30;99.90
6008;DHT22;3032;49.484;11.112;2022-09-09T02:35:34;15.30;99.90
6008;DHT22;3032;49.484;11.112;2022-09-09T02:38:04;15.50;99.90
6008;DHT22;3032;49.484;11.112;2022-09-09T02:40:31;15.60;99.90
6008;DHT22;3032;49.484;11.112;2022-09-09T02:42:57;15.90;99.90
6008;DHT22;3032;49.484;11.112;2022-09-09T02:45:25;16.00;99.90
6008;DHT22;3032;49.484;11.112;2022-09-09T02:48:34;16.20;99.90
6008;DHT22;3032;49.484;11.112;2022-09-09T02:51:27;16.10;99.90
6008;DHT22;3032;49.484;11.112;2022-09-09T02:54:15;16.20;99.90
6008;DHT22;3032;49.484;11.112;2022-09-09T02:56:47;16.30;99.90
6008;DHT22;3032;49.484;11.112;2022-09-09T02:59:15;16.20;99.90
6008;DHT22;3032;49.484;11.112;2022-09-09T03:01:41;16.20;99.90
6008;DHT22;3032;49.484;11.112;2022-09-09T03:04:07;16.40;99.90
6008;DHT22;3032;49.484;11.112;2022-09-09T03:06:33;16.40;99.90
6008;DHT22;3032;49.484;11.112;2022-09-09T03:08:58;16.10;99.90
6008;DHT22;3032;49.484;11.112;2022-09-09T03:11:26;15.90;99.90
6008;DHT22;3032;49.484;11.112;2022-09-09T03:13:53;15.80;99.90
6008;DHT22;3032;49.484;11.112;2022-09-09T03:16:20;15.80;99.90
6008;DHT22;3032;49.484;11.112;2022-09-09T03:18:46;16.00;99.90
6008;DHT22;3032;49.484;11.112;2022-09-09T03:21:12;15.90;99.90
6008;DHT22;3032;49.484;11.112;2022-09-09T03:23:37;15.80;99.90
6008;DHT22;3032;49.484;11.112;2022-09-09T03:26:03;15.70;99.90
6008;DHT22;3032;49.484;11.112;2022-09-09T03:28:28;15.80;99.90
6008;DHT22;3032;49.484;11.112;2022-09-09T03:31:04;16.10;99.90
6008;DHT22;3032;49.484;11.112;2022-09-09T03:33:30;16.20;99.90
6008;DHT22;3032;49.484;11.112;2022-09-09T03:35:56;16.10;99.90
6008;DHT22;3032;49.484;11.112;2022-09-09T03:38:24;15.90;99.90
6008;DHT22;3032;49.484;11.112;2022-09-09T03:40:54;16.10;99.90
6008;DHT22;3032;49.484;11.112;2022-09-09T03:43:26;15.70;99.90
6008;DHT22;3032;49.484;11.112;2022-09-09T03:45:52;15.60;99.90
6008;DHT22;3032;49.484;11.112;2022-09-09T03:48:19;15.50;99.90
6008;DHT22;3032;49.484;11.112;2022-09-09T03:50:49;15.60;99.90
6008;DHT22;3032;49.484;11.112;2022-09-09T03:53:16;16.00;99.90
6008;DHT22;3032;49.484;11.112;2022-09-09T03:55:48;15.80;99.90
6008;DHT22;3032;49.484;11.112;2022-09-09T03:58:15;15.80;99.90
6008;DHT22;3032;49.484;11.112;2022-09-09T04:00:43;16.00;99.90
6008;DHT22;3032;49.484;11.112;2022-09-09T04:03:10;16.00;99.90
6008;DHT22;3032;49.484;11.112;2022-09-09T04:05:38;16.00;99.90
6008;DHT22;3032;49.484;11.112;2022-09-09T04:08:06;15.90;99.90
6008;DHT22;3032;49.484;11.112;2022-09-09T04:10:32;15.80;99.90
6008;DHT22;3032;49.484;11.112;2022-09-09T04:12:58;15.50;99.90
6008;DHT22;3032;49.484;11.112;2022-09-09T04:15:24;15.30;99.90
6008;DHT22;3032;49.484;11.112;2022-09-09T04:17:50;15.50;99.90
6008;DHT22;3032;49.484;11.112;2022-09-09T04:20:16;15.60;99.90
6008;DHT22;3032;49.484;11.112;2022-09-09T04:22:41;15.50;99.90
6008;DHT22;3032;49.484;11.112;2022-09-09T04:25:07;15.60;99.90
6008;DHT22;3032;49.484;11.112;2022-09-09T04:27:33;15.50;99.90
6008;DHT22;3032;49.484;11.112;2022-09-09T04:29:59;15.70;99.90
6008;DHT22;3032;49.484;11.112;2022-09-09T04:32:25;15.80;99.90
6008;DHT22;3032;49.484;11.112;2022-09-09T04:34:53;15.80;99.90
6008;DHT22;3032;49.484;11.112;2022-09-09T04:37:19;15.60;99.90
6008;DHT22;3032;49.484;11.112;2022-09-09T04:39:44;16.00;99.90
6008;DHT22;3032;49.484;11.112;2022-09-09T04:42:10;15.60;99.90
6008;DHT22;3032;49.484;11.112;2022-09-09T04:44:37;15.60;99.90
6008;DHT22;3032;49.484;11.112;2022-09-09T04:47:03;15.40;99.90
6008;DHT22;3032;49.484;11.112;2022-09-09T04:49:28;15.40;99.90
6008;DHT22;3032;49.484;11.112;2022-09-09T04:51:56;15.50;99.90
6008;DHT22;3032;49.484;11.112;2022-09-09T04:54:22;15.60;99.90
6008;DHT22;3032;49.484;11.112;2022-09-09T04:56:49;15.60;99.90
6008;DHT22;3032;49.484;11.112;2022-09-09T04:59:15;15.70;99.90
6008;DHT22;3032;49.484;11.112;2022-09-09T05:01:41;15.70;99.90
6008;DHT22;3032;49.484;11.112;2022-09-09T05:04:07;15.70;99.90
6008;DHT22;3032;49.484;11.112;2022-09-09T05:06:34;16.00;99.90
6008;DHT22;3032;49.484;11.112;2022-09-09T05:09:01;16.50;99.90
6008;DHT22;3032;49.484;11.112;2022-09-09T05:11:31;15.90;99.90
6008;DHT22;3032;49.484;11.112;2022-09-09T05:13:57;15.70;99.90
6008;DHT22;3032;49.484;11.112;2022-09-09T05:16:23;15.90;99.90
6008;DHT22;3032;49.484;11.112;2022-09-09T05:18:49;15.80;99.90
6008;DHT22;3032;49.484;11.112;2022-09-09T05:21:16;15.80;99.90
6008;DHT22;3032;49.484;11.112;2022-09-09T05:23:42;15.90;99.90
6008;DHT22;3032;49.484;11.112;2022-09-09T05:26:12;16.40;99.90
6008;DHT22;3032;49.484;11.112;2022-09-09T05:28:39;16.80;99.90
6008;DHT22;3032;49.484;11.112;2022-09-09T05:31:06;17.50;99.90
6008;DHT22;3032;49.484;11.112;2022-09-09T05:33:38;17.20;99.90
6008;DHT22;3032;49.484;11.112;2022-09-09T05:36:07;17.30;99.90
6008;DHT22;3032;49.484;11.112;2022-09-09T05:38:34;17.20;99.90
6008;DHT22;3032;49.484;11.112;2022-09-09T05:41:01;17.10;99.90
6008;DHT22;3032;49.484;11.112;2022-09-09T05:43:31;16.70;99.90
6008;DHT22;3032;49.484;11.112;2022-09-09T05:46:11;16.70;99.90
6008;DHT22;3032;49.484;11.112;2022-09-09T05:48:41;16.80;99.90
6008;DHT22;3032;49.484;11.112;2022-09-09T05:51:09;17.10;99.90
6008;DHT22;3032;49.484;11.112;2022-09-09T05:53:35;17.30;99.90
6008;DHT22;3032;49.484;11.112;2022-09-09T05:56:04;17.50;99.90
6008;DHT22;3032;49.484;11.112;2022-09-09T05:58:31;17.70;99.90
6008;DHT22;3032;49.484;11.112;2022-09-09T06:01:07;17.90;99.90
6008;DHT22;3032;49.484;11.112;2022-09-09T06:03:35;17.60;99.90
6008;DHT22;3032;49.484;11.112;2022-09-09T06:06:03;17.60;99.90
6008;DHT22;3032;49.484;11.112;2022-09-09T06:08:33;17.60;99.90
6008;DHT22;3032;49.484;11.112;2022-09-09T06:11:09;17.50;99.90
6008;DHT22;3032;49.484;11.112;2022-09-09T06:13:35;17.40;99.90
6008;DHT22;3032;49.484;11.112;2022-09-09T06:16:02;17.70;99.90
6008;DHT22;3032;49.484;11.112;2022-09-09T06:18:28;17.50;99.90
6008;DHT22;3032;49.484;11.112;2022-09-09T06:21:03;17.60;99.90
6008;DHT22;3032;49.484;11.112;2022-09-09T06:23:32;17.70;99.90
6008;DHT22;3032;49.484;11.112;2022-09-09T06:28:31;18.20;99.90
6008;DHT22;3032;49.484;11.112;2022-09-09T06:31:08;18.30;99.90
6008;DHT22;3032;49.484;11.112;2022-09-09T06:33:36;18.60;99.90
6008;DHT22;3032;49.484;11.112;2022-09-09T06:36:05;19.00;99.90
6008;DHT22;3032;49.484;11.112;2022-09-09T06:38:30;18.80;99.90
6008;DHT22;3032;49.484;11.112;2022-09-09T06:40:58;20.20;99.90
6008;DHT22;3032;49.484;11.112;2022-09-09T06:43:25;21.00;99.90
6008;DHT22;3032;49.484;11.112;2022-09-09T06:46:01;21.20;99.90
6008;DHT22;3032;49.484;11.112;2022-09-09T06:48:28;20.50;99.90
6008;DHT22;3032;49.484;11.112;2022-09-09T06:51:02;19.90;99.90
6008;DHT22;3032;49.484;11.112;2022-09-09T06:53:27;19.90;99.90
6008;DHT22;3032;49.484;11.112;2022-09-09T06:55:53;20.50;99.90
6008;DHT22;3032;49.484;11.112;2022-09-09T06:58:20;21.00;99.90
6008;DHT22;3032;49.484;11.112;2022-09-09T07:00:47;21.00;99.90
6008;DHT22;3032;49.484;11.112;2022-09-09T07:03:13;20.50;99.90
6008;DHT22;3032;49.484;11.112;2022-09-09T07:05:39;21.70;99.90
6008;DHT22;3032;49.484;11.112;2022-09-09T07:08:04;23.40;99.90
6008;DHT22;3032;49.484;11.112;2022-09-09T07:10:30;24.10;99.90
6008;DHT22;3032;49.484;11.112;2022-09-09T07:12:56;23.70;99.90
6008;DHT22;3032;49.484;11.112;2022-09-09T07:15:22;22.80;99.90
6008;DHT22;3032;49.484;11.112;2022-09-09T07:17:48;22.50;99.90
6008;DHT22;3032;49.484;11.112;2022-09-09T07:20:14;22.20;99.90
6008;DHT22;3032;49.484;11.112;2022-09-09T07:22:40;22.00;99.90
6008;DHT22;3032;49.484;11.112;2022-09-09T07:25:07;22.20;99.90
6008;DHT22;3032;49.484;11.112;2022-09-09T07:27:32;21.90;99.90
6008;DHT22;3032;49.484;11.112;2022-09-09T07:29:58;21.80;99.90
6008;DHT22;3032;49.484;11.112;2022-09-09T07:32:24;21.60;99.90
6008;DHT22;3032;49.484;11.112;2022-09-09T07:34:51;21.90;99.90
6008;DHT22;3032;49.484;11.112;2022-09-09T07:37:16;21.90;99.90
6008;DHT22;3032;49.484;11.112;2022-09-09T07:39:42;21.70;99.90
6008;DHT22;3032;49.484;11.112;2022-09-09T07:42:08;21.30;99.90
6008;DHT22;3032;49.484;11.112;2022-09-09T07:44:36;20.90;99.90
6008;DHT22;3032;49.484;11.112;2022-09-09T07:47:05;22.00;99.90
6008;DHT22;3032;49.484;11.112;2022-09-09T07:49:31;24.60;99.90
6008;DHT22;3032;49.484;11.112;2022-09-09T07:51:58;25.10;99.90
6008;DHT22;3032;49.484;11.112;2022-09-09T07:54:23;24.40;99.90
6008;DHT22;3032;49.484;11.112;2022-09-09T07:56:50;23.90;99.90
6008;DHT22;3032;49.484;11.112;2022-09-09T07:59:16;25.20;99.90
6008;DHT22;3032;49.484;11.112;2022-09-09T08:01:47;26.10;98.40
6008;DHT22;3032;49.484;11.112;2022-09-09T08:04:18;26.90;97.30
6008;DHT22;3032;49.484;11.112;2022-09-09T08:06:46;29.60;93.50
6008;DHT22;3032;49.484;11.112;2022-09-09T08:09:13;30.80;89.50
6008;DHT22;3032;49.484;11.112;2022-09-09T08:11:40;29.50;88.30
6008;DHT22;3032;49.484;11.112;2022-09-09T08:14:07;30.10;86.10
6008;DHT22;3032;49.484;11.112;2022-09-09T08:16:34;31.00;86.80
6008;DHT22;3032;49.484;11.112;2022-09-09T08:19:02;31.70;79.80
6008;DHT22;3032;49.484;11.112;2022-09-09T08:21:30;32.10;80.40
6008;DHT22;3032;49.484;11.112;2022-09-09T08:23:58;31.90;77.90
6008;DHT22;3032;49.484;11.112;2022-09-09T08:26:26;33.20;73.50
6008;DHT22;3032;49.484;11.112;2022-09-09T08:28:55;33.70;72.40
6008;DHT22;3032;49.484;11.112;2022-09-09T08:31:42;35.20;68.70
6008;DHT22;3032;49.484;11.112;2022-09-09T08:34:08;36.20;62.60
6008;DHT22;3032;49.484;11.112;2022-09-09T08:36:41;36.70;61.70
6008;DHT22;3032;49.484;11.112;2022-09-09T08:39:08;36.70;58.00
6008;DHT22;3032;49.484;11.112;2022-09-09T08:50:16;36.00;57.80
6008;DHT22;3032;49.484;11.112;2022-09-09T08:52:51;35.50;57.50
6008;DHT22;3032;49.484;11.112;2022-09-09T08:58:13;36.80;54.80
6008;DHT22;3032;49.484;11.112;2022-09-09T09:09:06;35.40;55.60
6008;DHT22;3032;49.484;11.112;2022-09-09T09:11:38;33.20;55.90
6008;DHT22;3032;49.484;11.112;2022-09-09T09:14:11;32.80;59.10
6008;DHT22;3032;49.484;11.112;2022-09-09T09:16:54;32.80;59.90
6008;DHT22;3032;49.484;11.112;2022-09-09T09:19:22;33.30;59.30
6008;DHT22;3032;49.484;11.112;2022-09-09T09:22:20;32.20;58.60
6008;DHT22;3032;49.484;11.112;2022-09-09T09:27:33;32.60;61.80
6008;DHT22;3032;49.484;11.112;2022-09-09T09:30:13;32.60;59.40
6008;DHT22;3032;49.484;11.112;2022-09-09T09:32:42;32.40;59.60
6008;DHT22;3032;49.484;11.112;2022-09-09T09:35:13;31.50;62.40
6008;DHT22;3032;49.484;11.112;2022-09-09T09:37:40;31.60;60.10
6008;DHT22;3032;49.484;11.112;2022-09-09T09:40:17;30.40;60.70
6008;DHT22;3032;49.484;11.112;2022-09-09T09:43:01;30.70;63.30
6008;DHT22;3032;49.484;11.112;2022-09-09T09:45:42;30.90;62.00
6008;DHT22;3032;49.484;11.112;2022-09-09T09:48:12;31.40;60.70
6008;DHT22;3032;49.484;11.112;2022-09-09T09:50:55;32.90;60.80
6008;DHT22;3032;49.484;11.112;2022-09-09T09:53:30;33.90;58.80
6008;DHT22;3032;49.484;11.112;2022-09-09T09:56:01;34.80;57.90
6008;DHT22;3032;49.484;11.112;2022-09-09T09:58:31;36.30;54.90
6008;DHT22;3032;49.484;11.112;2022-09-09T10:00:59;37.00;53.50
6008;DHT22;3032;49.484;11.112;2022-09-09T10:03:28;34.70;53.60
6008;DHT22;3032;49.484;11.112;2022-09-09T10:05:55;34.90;55.80
6008;DHT22;3032;49.484;11.112;2022-09-09T10:08:22;33.90;53.50
6008;DHT22;3032;49.484;11.112;2022-09-09T10:19:34;30.30;59.20
6008;DHT22;3032;49.484;11.112;2022-09-09T10:22:25;29.00;60.70
6008;DHT22;3032;49.484;11.112;2022-09-09T10:25:21;28.80;62.70
6008;DHT22;3032;49.484;11.112;2022-09-09T10:28:14;30.30;61.60
6008;DHT22;3032;49.484;11.112;2022-09-09T10:31:16;32.40;58.70
6008;DHT22;3032;49.484;11.112;2022-09-09T10:33:57;34.30;57.10
6008;DHT22;3032;49.484;11.112;2022-09-09T10:36:27;35.80;54.40
6008;DHT22;3032;49.484;11.112;2022-09-09T10:39:05;36.70;53.10
6008;DHT22;3032;49.484;11.112;2022-09-09T10:42:04;37.90;51.30
6008;DHT22;3032;49.484;11.112;2022-09-09T10:50:23;33.80;52.90
6008;DHT22;3032;49.484;11.112;2022-09-09T10:53:08;32.50;54.70
6008;DHT22;3032;49.484;11.112;2022-09-09T10:55:44;31.60;56.30
6008;DHT22;3032;49.484;11.112;2022-09-09T10:58:17;30.70;57.40
6008;DHT22;3032;49.484;11.112;2022-09-09T11:00:48;29.90;59.30
6008;DHT22;3032;49.484;11.112;2022-09-09T11:03:21;30.30;61.00
6008;DHT22;3032;49.484;11.112;2022-09-09T11:05:53;30.00;60.20
6008;DHT22;3032;49.484;11.112;2022-09-09T11:08:24;29.90;60.40
6008;DHT22;3032;49.484;11.112;2022-09-09T11:19:03;29.10;63.30
6008;DHT22;3032;49.484;11.112;2022-09-09T11:21:55;28.80;63.20
6008;DHT22;3032;49.484;11.112;2022-09-09T11:26:52;28.50;64.20
6008;DHT22;3032;49.484;11.112;2022-09-09T11:32:44;28.50;63.80
6008;DHT22;3032;49.484;11.112;2022-09-09T11:40:32;29.50;62.20
6008;DHT22;3032;49.484;11.112;2022-09-09T11:43:26;29.60;62.00
6008;DHT22;3032;49.484;11.112;2022-09-09T11:45:55;29.80;62.40
6008;DHT22;3032;49.484;11.112;2022-09-09T11:48:41;29.90;61.90
6008;DHT22;3032;49.484;11.112;2022-09-09T11:51:30;29.60;61.80
6008;DHT22;3032;49.484;11.112;2022-09-09T11:56:48;29.80;60.10
6008;DHT22;3032;49.484;11.112;2022-09-09T11:59:29;29.90;61.80
6008;DHT22;3032;49.484;11.112;2022-09-09T12:02:12;29.80;60.90
6008;DHT22;3032;49.484;11.112;2022-09-09T12:07:37;29.30;62.30
6008;DHT22;3032;49.484;11.112;2022-09-09T12:12:47;28.80;63.90
6008;DHT22;3032;49.484;11.112;2022-09-09T12:15:23;28.40;61.80
6008;DHT22;3032;49.484;11.112;2022-09-09T12:17:57;27.80;63.50
6008;DHT22;3032;49.484;11.112;2022-09-09T12:29:00;27.30;66.60
6008;DHT22;3032;49.484;11.112;2022-09-09T12:31:17;27.30;65.80
6008;DHT22;3032;49.484;11.112;2022-09-09T12:33:46;27.00;67.10
6008;DHT22;3032;49.484;11.112;2022-09-09T12:36:21;27.30;62.20
6008;DHT22;3032;49.484;11.112;2022-09-09T12:38:49;26.90;61.10
6008;DHT22;3032;49.484;11.112;2022-09-09T12:41:24;27.50;60.30
6008;DHT22;3032;49.484;11.112;2022-09-09T12:43:50;27.80;58.30
6008;DHT22;3032;49.484;11.112;2022-09-09T12:46:38;28.00;57.70
6008;DHT22;3032;49.484;11.112;2022-09-09T12:49:18;28.10;57.70
6008;DHT22;3032;49.484;11.112;2022-09-09T12:51:49;27.90;57.60
6008;DHT22;3032;49.484;11.112;2022-09-09T12:54:14;27.60;59.70
6008;DHT22;3032;49.484;11.112;2022-09-09T12:56:45;27.90;59.90
6008;DHT22;3032;49.484;11.112;2022-09-09T12:59:23;27.70;60.60
6008;DHT22;3032;49.484;11.112;2022-09-09T13:01:56;27.30;61.40
6008;DHT22;3032;49.484;11.112;2022-09-09T13:04:22;27.00;63.70
6008;DHT22;3032;49.484;11.112;2022-09-09T13:06:48;26.90;63.30
6008;DHT22;3032;49.484;11.112;2022-09-09T13:09:15;26.70;64.20
6008;DHT22;3032;49.484;11.112;2022-09-09T13:11:50;26.50;67.00
6008;DHT22;3032;49.484;11.112;2022-09-09T13:14:22;26.20;70.70
6008;DHT22;3032;49.484;11.112;2022-09-09T13:16:59;26.10;72.60
6008;DHT22;3032;49.484;11.112;2022-09-09T13:19:25;25.90;74.40
6008;DHT22;3032;49.484;11.112;2022-09-09T13:21:54;26.20;73.70
6008;DHT22;3032;49.484;11.112;2022-09-09T13:24:31;26.40;72.90
6008;DHT22;3032;49.484;11.112;2022-09-09T13:27:01;26.30;71.60
6008;DHT22;3032;49.484;11.112;2022-09-09T13:29:28;26.10;72.90
6008;DHT22;3032;49.484;11.112;2022-09-09T13:32:15;25.80;74.90
6008;DHT22;3032;49.484;11.112;2022-09-09T13:35:00;26.00;74.60
6008;DHT22;3032;49.484;11.112;2022-09-09T13:37:35;26.10;72.40
6008;DHT22;3032;49.484;11.112;2022-09-09T13:40:02;26.20;72.00
6008;DHT22;3032;49.484;11.112;2022-09-09T13:42:32;26.70;74.70
6008;DHT22;3032;49.484;11.112;2022-09-09T13:45:00;27.40;71.00
6008;DHT22;3032;49.484;11.112;2022-09-09T13:47:32;28.10;70.30
6008;DHT22;3032;49.484;11.112;2022-09-09T13:50:09;28.60;68.80
6008;DHT22;3032;49.484;11.112;2022-09-09T13:52:34;28.30;69.50
6008;DHT22;3032;49.484;11.112;2022-09-09T13:55:00;27.90;70.00
6008;DHT22;3032;49.484;11.112;2022-09-09T13:57:26;27.90;70.00
6008;DHT22;3032;49.484;11.112;2022-09-09T13:59:53;27.60;70.00
6008;DHT22;3032;49.484;11.112;2022-09-09T14:02:20;27.90;70.20
6008;DHT22;3032;49.484;11.112;2022-09-09T14:04:46;27.80;66.70
6008;DHT22;3032;49.484;11.112;2022-09-09T14:07:16;28.10;66.30
6008;DHT22;3032;49.484;11.112;2022-09-09T14:09:42;28.50;64.20
6008;DHT22;3032;49.484;11.112;2022-09-09T14:12:12;28.40;64.80
6008;DHT22;3032;49.484;11.112;2022-09-09T14:14:38;28.50;63.30
6008;DHT22;3032;49.484;11.112;2022-09-09T14:17:04;28.10;63.30
6008;DHT22;3032;49.484;11.112;2022-09-09T14:19:30;28.40;62.30
6008;DHT22;3032;49.484;11.112;2022-09-09T14:21:57;28.30;61.60
6008;DHT22;3032;49.484;11.112;2022-09-09T14:24:23;28.20;62.10
6008;DHT22;3032;49.484;11.112;2022-09-09T14:26:49;28.40;61.20
6008;DHT22;3032;49.484;11.112;2022-09-09T14:29:14;28.30;62.90
6008;DHT22;3032;49.484;11.112;2022-09-09T14:31:40;27.80;63.90
6008;DHT22;3032;49.484;11.112;2022-09-09T14:34:05;27.90;64.10
6008;DHT22;3032;49.484;11.112;2022-09-09T14:36:31;28.20;63.30
6008;DHT22;3032;49.484;11.112;2022-09-09T14:38:57;27.90;63.80
6008;DHT22;3032;49.484;11.112;2022-09-09T14:41:23;27.60;65.00
6008;DHT22;3032;49.484;11.112;2022-09-09T14:43:49;27.40;64.90
6008;DHT22;3032;49.484;11.112;2022-09-09T14:46:16;26.60;67.00
6008;DHT22;3032;49.484;11.112;2022-09-09T14:48:42;25.90;69.40
6008;DHT22;3032;49.484;11.112;2022-09-09T14:51:12;25.30;71.40
6008;DHT22;3032;49.484;11.112;2022-09-09T14:53:39;25.60;72.70
6008;DHT22;3032;49.484;11.112;2022-09-09T14:56:07;25.40;72.10
6008;DHT22;3032;49.484;11.112;2022-09-09T14:58:33;25.20;72.50
6008;DHT22;3032;49.484;11.112;2022-09-09T15:01:04;25.30;72.80
6008;DHT22;3032;49.484;11.112;2022-09-09T15:03:30;25.20;73.90
6008;DHT22;3032;49.484;11.112;2022-09-09T15:05:55;23.80;76.30
6008;DHT22;3032;49.484;11.112;2022-09-09T15:08:24;23.60;79.40
6008;DHT22;3032;49.484;11.112;2022-09-09T15:10:49;24.20;79.70
6008;DHT22;3032;49.484;11.112;2022-09-09T15:13:15;24.50;78.60
6008;DHT22;3032;49.484;11.112;2022-09-09T15:15:42;24.70;78.80
6008;DHT22;3032;49.484;11.112;2022-09-09T15:18:09;24.90;78.70
6008;DHT22;3032;49.484;11.112;2022-09-09T15:20:34;25.20;77.20
6008;DHT22;3032;49.484;11.112;2022-09-09T15:23:02;25.40;77.90
6008;DHT22;3032;49.484;11.112;2022-09-09T15:25:28;25.70;78.00
6008;DHT22;3032;49.484;11.112;2022-09-09T15:27:53;25.70;77.20
6008;DHT22;3032;49.484;11.112;2022-09-09T15:30:19;25.60;77.40
6008;DHT22;3032;49.484;11.112;2022-09-09T15:32:44;25.60;76.60
6008;DHT22;3032;49.484;11.112;2022-09-09T15:35:10;25.50;76.00
6008;DHT22;3032;49.484;11.112;2022-09-09T15:37:35;25.30;77.60
6008;DHT22;3032;49.484;11.112;2022-09-09T15:40:01;25.70;78.10
6008;DHT22;3032;49.484;11.112;2022-09-09T15:42:27;25.30;77.70
6008;DHT22;3032;49.484;11.112;2022-09-09T15:44:52;25.20;78.30
6008;DHT22;3032;49.484;11.112;2022-09-09T15:47:18;25.10;79.60
6008;DHT22;3032;49.484;11.112;2022-09-09T15:49:43;24.80;80.10
6008;DHT22;3032;49.484;11.112;2022-09-09T15:52:10;24.40;79.40
6008;DHT22;3032;49.484;11.112;2022-09-09T15:54:36;24.40;80.00
6008;DHT22;3032;49.484;11.112;2022-09-09T15:57:06;24.10;80.00
6008;DHT22;3032;49.484;11.112;2022-09-09T15:59:33;23.90;80.00
6008;DHT22;3032;49.484;11.112;2022-09-09T16:01:59;24.00;80.00
6008;DHT22;3032;49.484;11.112;2022-09-09T16:04:26;24.50;81.30
6008;DHT22;3032;49.484;11.112;2022-09-09T16:06:53;24.00;81.20
6008;DHT22;3032;49.484;11.112;2022-09-09T16:09:19;23.70;80.40
6008;DHT22;3032;49.484;11.112;2022-09-09T16:11:45;24.20;79.60
6008;DHT22;3032;49.484;11.112;2022-09-09T16:14:12;24.50;78.40
6008;DHT22;3032;49.484;11.112;2022-09-09T16:16:38;24.70;77.20
6008;DHT22;3032;49.484;11.112;2022-09-09T16:19:06;24.60;76.00
6008;DHT22;3032;49.484;11.112;2022-09-09T16:21:37;24.60;73.70
6008;DHT22;3032;49.484;11.112;2022-09-09T16:24:04;24.70;73.40
6008;DHT22;3032;49.484;11.112;2022-09-09T16:26:32;24.60;73.30
6008;DHT22;3032;49.484;11.112;2022-09-09T16:28:58;24.70;70.50
6008;DHT22;3032;49.484;11.112;2022-09-09T16:31:25;24.50;71.00
6008;DHT22;3032;49.484;11.112;2022-09-09T16:33:52;24.30;70.20
6008;DHT22;3032;49.484;11.112;2022-09-09T16:36:29;24.50;70.20
6008;DHT22;3032;49.484;11.112;2022-09-09T16:38:59;24.40;70.50
6008;DHT22;3032;49.484;11.112;2022-09-09T16:41:27;24.20;69.70
6008;DHT22;3032;49.484;11.112;2022-09-09T16:43:55;24.30;69.50
6008;DHT22;3032;49.484;11.112;2022-09-09T16:46:22;23.70;69.30
6008;DHT22;3032;49.484;11.112;2022-09-09T16:48:49;23.40;72.20
6008;DHT22;3032;49.484;11.112;2022-09-09T16:51:18;23.30;71.00
6008;DHT22;3032;49.484;11.112;2022-09-09T16:53:44;23.30;71.50
6008;DHT22;3032;49.484;11.112;2022-09-09T16:56:12;23.50;70.60
6008;DHT22;3032;49.484;11.112;2022-09-09T16:58:38;23.60;73.00
6008;DHT22;3032;49.484;11.112;2022-09-09T17:01:04;23.60;72.70
6008;DHT22;3032;49.484;11.112;2022-09-09T17:03:30;23.80;71.40
6008;DHT22;3032;49.484;11.112;2022-09-09T17:05:57;24.00;73.10
6008;DHT22;3032;49.484;11.112;2022-09-09T17:08:23;23.90;70.80
6008;DHT22;3032;49.484;11.112;2022-09-09T17:10:49;23.60;71.20
6008;DHT22;3032;49.484;11.112;2022-09-09T17:13:15;22.90;72.60
6008;DHT22;3032;49.484;11.112;2022-09-09T17:15:44;23.00;73.20
6008;DHT22;3032;49.484;11.112;2022-09-09T17:18:11;23.30;72.80
6008;DHT22;3032;49.484;11.112;2022-09-09T17:20:40;23.50;74.40
6008;DHT22;3032;49.484;11.112;2022-09-09T17:23:08;23.60;74.10
6008;DHT22;3032;49.484;11.112;2022-09-09T17:25:35;23.60;72.90
6008;DHT22;3032;49.484;11.112;2022-09-09T17:28:01;23.50;73.00
6008;DHT22;3032;49.484;11.112;2022-09-09T17:30:30;23.20;73.90
6008;DHT22;3032;49.484;11.112;2022-09-09T17:32:56;23.00;75.10
6008;DHT22;3032;49.484;11.112;2022-09-09T17:35:22;23.00;75.50
6008;DHT22;3032;49.484;11.112;2022-09-09T17:37:47;23.20;75.90
6008;DHT22;3032;49.484;11.112;2022-09-09T17:40:13;22.90;76.60
6008;DHT22;3032;49.484;11.112;2022-09-09T17:42:39;23.00;76.60
6008;DHT22;3032;49.484;11.112;2022-09-09T17:45:06;23.00;76.40
6008;DHT22;3032;49.484;11.112;2022-09-09T17:47:31;23.10;76.40
6008;DHT22;3032;49.484;11.112;2022-09-09T17:49:57;23.10;76.60
6008;DHT22;3032;49.484;11.112;2022-09-09T17:52:23;23.40;77.20
6008;DHT22;3032;49.484;11.112;2022-09-09T17:54:49;23.40;77.30
6008;DHT22;3032;49.484;11.112;2022-09-09T17:57:15;23.10;76.90
6008;DHT22;3032;49.484;11.112;2022-09-09T17:59:43;23.10;77.10